createdAt,value
2022-10-06T00:00:01.944Z,4.45
2022-10-06T00:02:28.712Z,4.32
2022-10-06T00:04:55.551Z,5.28
2022-10-06T00:07:22.316Z,4.95
2022-10-06T00:09:49.072Z,3.33
2022-10-06T00:12:15.758Z,3.70
2022-10-06T00:14:42.552Z,3.25
2022-10-06T00:17:09.215Z,3.33
2022-10-06T00:19:36.014Z,3.13
2022-10-06T00:22:05.282Z,4.18
2022-10-06T00:24:32.275Z,4.22
2022-10-06T00:26:58.983Z,4.53
2022-10-06T00:29:25.895Z,3.25
2022-10-06T00:31:52.711Z,4.63
2022-10-06T00:34:19.466Z,3.58
2022-10-06T00:36:46.229Z,3.30
2022-10-06T00:39:12.991Z,6.07
2022-10-06T00:41:39.708Z,4.07
2022-10-06T00:44:06.410Z,4.88
2022-10-06T00:46:52.342Z,3.28
2022-10-06T00:52:10.933Z,5.38
2022-10-06T00:54:38.747Z,4.93
2022-10-06T00:57:06.121Z,4.00
2022-10-06T00:59:33.782Z,4.78
2022-10-06T01:02:04.176Z,3.33
2022-10-06T01:04:33.672Z,2.92
2022-10-06T01:07:03.937Z,5.47
2022-10-06T01:09:31.529Z,5.03
2022-10-06T01:12:02.132Z,5.53
2022-10-06T01:14:29.256Z,2.95
2022-10-06T01:17:09.610Z,5.93
2022-10-06T01:20:06.029Z,4.93
2022-10-06T01:25:09.665Z,2.83
2022-10-06T01:27:39.059Z,6.93
2022-10-06T01:30:09.181Z,6.43
2022-10-06T01:32:39.044Z,5.20
2022-10-06T01:35:07.628Z,7.45
2022-10-06T01:37:34.752Z,7.18
2022-10-06T01:40:01.750Z,5.45
2022-10-06T01:42:31.785Z,9.90
2022-10-06T01:44:59.352Z,4.20
2022-10-06T01:47:26.146Z,8.27
2022-10-06T01:49:53.029Z,4.65
2022-10-06T01:52:20.246Z,8.40
2022-10-06T01:54:46.976Z,7.60
2022-10-06T01:57:14.762Z,4.90
2022-10-06T01:59:41.466Z,4.65
2022-10-06T02:02:08.250Z,5.30
2022-10-06T02:04:34.947Z,6.75
2022-10-06T02:07:04.030Z,6.82
2022-10-06T02:09:30.765Z,7.95
2022-10-06T02:11:57.444Z,4.85
2022-10-06T02:14:24.124Z,8.27
2022-10-06T02:16:55.807Z,9.18
2022-10-06T02:19:22.779Z,8.55
2022-10-06T02:21:49.587Z,7.95
2022-10-06T02:24:16.528Z,7.03
2022-10-06T02:26:43.214Z,9.98
2022-10-06T02:29:09.926Z,3.38
2022-10-06T02:31:37.911Z,6.90
2022-10-06T02:34:04.728Z,8.27
2022-10-06T02:36:31.498Z,10.98
2022-10-06T02:38:58.237Z,11.23
2022-10-06T02:41:27.401Z,11.95
2022-10-06T02:43:57.010Z,5.88
2022-10-06T02:46:24.330Z,5.68
2022-10-06T02:48:53.739Z,6.70
2022-10-06T02:51:23.236Z,7.72
2022-10-06T02:53:51.041Z,5.03
2022-10-06T02:56:23.286Z,6.85
2022-10-06T02:58:51.662Z,9.07
2022-10-06T03:01:21.204Z,11.07
2022-10-06T03:03:48.271Z,10.15
2022-10-06T03:06:22.321Z,11.73
2022-10-06T03:08:49.311Z,6.97
2022-10-06T03:11:19.187Z,14.80
2022-10-06T03:13:47.244Z,9.52
2022-10-06T03:16:19.834Z,8.02
2022-10-06T03:18:49.391Z,11.80
2022-10-06T03:21:22.284Z,10.27
2022-10-06T03:23:50.893Z,9.00
2022-10-06T03:26:20.338Z,7.13
2022-10-06T03:28:49.587Z,9.05
2022-10-06T03:31:17.886Z,10.18
2022-10-06T03:33:44.727Z,9.10
2022-10-06T03:36:14.169Z,9.10
2022-10-06T03:38:41.221Z,6.45
2022-10-06T03:41:16.595Z,7.75
2022-10-06T03:43:44.846Z,4.82
2022-10-06T03:46:13.390Z,7.78
2022-10-06T03:48:40.338Z,12.88
2022-10-06T03:51:14.931Z,12.07
2022-10-06T03:53:45.002Z,9.98
2022-10-06T03:56:14.292Z,10.82
2022-10-06T03:58:48.908Z,8.77
2022-10-06T04:01:26.111Z,10.20
2022-10-06T04:03:58.087Z,8.93
2022-10-06T04:06:26.467Z,10.73
2022-10-06T04:08:54.266Z,5.93
2022-10-06T04:11:22.417Z,8.77
2022-10-06T04:13:53.242Z,8.18
2022-10-06T04:16:22.633Z,7.93
2022-10-06T04:18:51.234Z,7.75
2022-10-06T04:21:18.424Z,11.07
2022-10-06T04:23:47.924Z,11.07
2022-10-06T04:26:20.075Z,7.13
2022-10-06T04:28:47.294Z,14.98
2022-10-06T04:31:19.664Z,11.13
2022-10-06T04:33:47.688Z,11.40
2022-10-06T04:36:19.213Z,10.95
2022-10-06T04:38:45.930Z,11.43
2022-10-06T04:41:15.331Z,11.13
2022-10-06T04:43:44.685Z,10.18
2022-10-06T04:46:37.579Z,7.25
2022-10-06T04:48:58.205Z,9.90
2022-10-06T04:51:26.692Z,13.82
2022-10-06T04:53:53.587Z,9.98
2022-10-06T04:56:29.439Z,10.50
2022-10-06T04:58:57.617Z,12.00
2022-10-06T05:01:29.982Z,9.20
2022-10-06T05:03:58.882Z,15.10
2022-10-06T05:06:37.148Z,13.05
2022-10-06T05:09:13.317Z,9.02
2022-10-06T05:11:40.133Z,10.77
2022-10-06T05:14:07.396Z,13.73
2022-10-06T05:16:34.561Z,12.02
2022-10-06T05:19:01.262Z,14.27
2022-10-06T05:21:32.341Z,11.70
2022-10-06T05:23:59.876Z,10.13
2022-10-06T05:26:29.164Z,9.85
2022-10-06T05:28:56.493Z,12.90
2022-10-06T05:31:27.192Z,14.10
2022-10-06T05:33:55.139Z,14.20
2022-10-06T05:36:24.478Z,9.13
2022-10-06T05:38:51.592Z,13.55
2022-10-06T05:41:20.997Z,11.23
2022-10-06T05:43:48.426Z,16.20
2022-10-06T05:46:20.969Z,13.45
2022-10-06T05:48:55.460Z,16.02
2022-10-06T05:51:30.045Z,18.10
2022-10-06T05:53:58.345Z,13.00
2022-10-06T05:56:29.173Z,11.30
2022-10-06T05:58:57.642Z,8.43
2022-10-06T06:01:27.829Z,11.88
2022-10-06T06:03:59.441Z,14.98
2022-10-06T06:06:32.023Z,11.27
2022-10-06T06:09:01.779Z,14.98
2022-10-06T06:11:31.567Z,11.90
2022-10-06T06:14:06.609Z,14.52
2022-10-06T06:16:39.057Z,15.23
2022-10-06T06:19:07.286Z,9.50
2022-10-06T06:21:34.290Z,15.00
2022-10-06T06:24:04.519Z,19.75
2022-10-06T06:26:37.136Z,12.07
2022-10-06T06:29:06.100Z,13.98
2022-10-06T06:31:38.455Z,13.57
2022-10-06T06:34:07.051Z,12.68
2022-10-06T06:36:43.427Z,14.73
2022-10-06T06:39:11.931Z,17.52
2022-10-06T06:41:41.475Z,19.98
2022-10-06T06:44:11.142Z,13.60
2022-10-06T06:46:38.878Z,14.43
2022-10-06T06:49:06.851Z,13.88
2022-10-06T06:51:40.268Z,11.95
2022-10-06T06:54:08.343Z,12.70
2022-10-06T06:56:38.828Z,20.38
2022-10-06T06:59:08.986Z,13.75
2022-10-06T07:01:35.860Z,17.95
2022-10-06T07:04:06.170Z,16.80
2022-10-06T07:06:32.930Z,17.05
2022-10-06T07:09:00.273Z,17.27
2022-10-06T07:11:31.304Z,12.23
2022-10-06T07:14:03.053Z,14.65
2022-10-06T07:16:58.327Z,18.45
2022-10-06T07:19:43.291Z,17.52
2022-10-06T07:22:28.486Z,15.32
2022-10-06T07:25:11.566Z,17.33
2022-10-06T07:27:43.347Z,17.60
2022-10-06T07:30:25.775Z,17.08
2022-10-06T07:32:53.553Z,17.02
2022-10-06T07:35:22.274Z,19.88
2022-10-06T07:37:50.305Z,16.88
2022-10-06T07:40:17.563Z,14.93
2022-10-06T07:42:52.092Z,14.98
2022-10-06T07:45:46.312Z,12.43
2022-10-06T07:48:21.192Z,18.60
2022-10-06T07:50:51.318Z,13.98
2022-10-06T07:53:19.198Z,14.70
2022-10-06T07:55:50.432Z,16.40
2022-10-06T07:58:19.611Z,18.17
2022-10-06T08:00:48.393Z,16.02
2022-10-06T08:03:22.272Z,21.10
2022-10-06T08:05:56.903Z,20.33
2022-10-06T08:08:24.309Z,12.52
2022-10-06T08:10:56.449Z,14.75
2022-10-06T08:13:26.680Z,21.95
2022-10-06T08:15:56.425Z,14.68
2022-10-06T08:18:45.581Z,17.92
2022-10-06T08:21:29.003Z,11.75
2022-10-06T08:23:57.705Z,17.98
2022-10-06T08:26:39.982Z,10.80
2022-10-06T08:29:06.905Z,11.02
2022-10-06T08:31:54.016Z,15.63
2022-10-06T08:34:21.785Z,13.57
2022-10-06T08:37:02.426Z,14.95
2022-10-06T08:39:35.451Z,10.93
2022-10-06T08:42:03.233Z,13.80
2022-10-06T08:44:32.939Z,13.38
2022-10-06T08:47:23.399Z,13.00
2022-10-06T08:49:59.345Z,18.95
2022-10-06T08:52:32.299Z,16.02
2022-10-06T08:55:01.932Z,12.18
2022-10-06T08:57:52.817Z,20.02
2022-10-06T09:00:22.155Z,13.00
2022-10-06T09:02:50.412Z,18.60
2022-10-06T09:05:25.286Z,13.15
2022-10-06T09:08:04.260Z,11.07
2022-10-06T09:10:36.655Z,14.57
2022-10-06T09:13:09.511Z,10.32
2022-10-06T09:15:49.084Z,15.60
2022-10-06T09:19:03.774Z,20.60
2022-10-06T09:21:33.668Z,9.52
2022-10-06T09:24:12.676Z,13.00
2022-10-06T09:26:45.468Z,9.63
2022-10-06T09:29:13.328Z,13.55
2022-10-06T09:31:44.058Z,14.43
2022-10-06T09:34:37.668Z,17.58
2022-10-06T09:37:14.589Z,8.30
2022-10-06T09:39:45.831Z,9.48
2022-10-06T09:42:29.700Z,13.95
2022-10-06T09:45:01.279Z,14.40
2022-10-06T09:47:47.695Z,8.27
2022-10-06T09:50:22.324Z,12.35
2022-10-06T09:52:58.038Z,12.35
2022-10-06T09:55:40.414Z,13.85
2022-10-06T09:58:18.916Z,6.43
2022-10-06T10:00:53.468Z,10.88
2022-10-06T10:03:21.639Z,8.43
2022-10-06T10:05:57.232Z,10.27
2022-10-06T10:11:31.704Z,13.35
2022-10-06T10:14:00.682Z,7.95
2022-10-06T10:16:35.485Z,6.15
2022-10-06T10:19:05.651Z,7.40
2022-10-06T10:21:34.854Z,11.85
2022-10-06T10:24:06.167Z,9.43
2022-10-06T10:26:57.912Z,12.25
2022-10-06T10:29:50.753Z,9.68
2022-10-06T10:33:08.059Z,7.18
2022-10-06T10:35:41.661Z,9.60
2022-10-06T10:38:23.222Z,10.13
2022-10-06T10:40:51.629Z,11.05
2022-10-06T10:43:26.191Z,9.20
2022-10-06T10:46:13.988Z,9.60
2022-10-06T10:49:11.496Z,8.50
2022-10-06T10:51:40.869Z,5.68
2022-10-06T10:54:25.007Z,10.65
2022-10-06T10:56:53.391Z,14.60
2022-10-06T10:59:34.133Z,5.82
2022-10-06T11:02:15.581Z,8.38
2022-10-06T11:04:47.159Z,8.68
2022-10-06T11:07:43.233Z,9.35
2022-10-06T11:10:33.861Z,6.57
2022-10-06T11:13:42.399Z,5.70
2022-10-06T11:16:37.163Z,5.28
2022-10-06T11:19:28.698Z,8.85
2022-10-06T11:22:07.602Z,6.13
2022-10-06T11:24:48.637Z,6.00
2022-10-06T11:27:43.349Z,9.35
2022-10-06T11:30:18.344Z,7.47
2022-10-06T11:37:55.329Z,6.13
2022-10-06T11:40:47.633Z,5.72
2022-10-06T11:43:40.458Z,8.68
2022-10-06T11:46:31.038Z,7.75
2022-10-06T11:52:08.338Z,7.53
2022-10-06T11:54:53.364Z,7.60
2022-10-06T11:57:30.993Z,8.55
2022-10-06T12:00:04.509Z,8.88
2022-10-06T12:02:38.881Z,8.02
2022-10-06T12:10:28.245Z,5.43
2022-10-06T12:14:01.220Z,8.32
2022-10-06T12:21:45.639Z,6.10
2022-10-06T12:24:31.041Z,8.30
2022-10-06T12:27:04.714Z,4.88
2022-10-06T12:29:58.069Z,11.75
2022-10-06T12:32:31.008Z,7.32
2022-10-06T12:35:02.995Z,6.25
2022-10-06T12:37:32.841Z,7.45
2022-10-06T12:40:40.443Z,3.50
2022-10-06T12:43:34.887Z,5.95
2022-10-06T12:46:16.261Z,5.22
2022-10-06T12:49:00.266Z,5.22
2022-10-06T12:51:38.841Z,7.22
2022-10-06T12:54:27.993Z,8.43
2022-10-06T12:56:59.703Z,6.53
2022-10-06T12:59:33.953Z,9.68
2022-10-06T13:02:21.153Z,8.32
2022-10-06T13:05:11.278Z,6.97
2022-10-06T13:08:00.408Z,9.18
2022-10-06T13:10:32.447Z,4.45
2022-10-06T13:13:00.346Z,4.88
2022-10-06T13:15:34.958Z,5.07
2022-10-06T13:18:07.712Z,7.78
2022-10-06T13:20:35.484Z,8.18
2022-10-06T13:23:30.084Z,9.30
2022-10-06T13:26:05.652Z,5.80
2022-10-06T13:28:44.147Z,6.90
2022-10-06T13:31:31.428Z,8.23
2022-10-06T13:34:10.701Z,7.20
2022-10-06T13:36:42.933Z,5.32
2022-10-06T13:39:19.953Z,4.90
2022-10-06T13:42:02.152Z,8.23
2022-10-06T13:44:31.959Z,9.82
2022-10-06T13:47:03.255Z,10.50
2022-10-06T13:50:03.126Z,6.55
2022-10-06T13:52:35.131Z,7.63
2022-10-06T13:55:05.242Z,6.78
2022-10-06T13:58:08.368Z,4.45
2022-10-06T14:01:00.698Z,5.32
2022-10-06T14:03:29.070Z,8.23
2022-10-06T14:06:11.276Z,4.93
2022-10-06T14:08:40.679Z,7.03
2022-10-06T14:11:08.813Z,5.32
2022-10-06T14:13:51.339Z,6.88
2022-10-06T14:16:24.502Z,6.18
2022-10-06T14:19:01.873Z,5.97
2022-10-06T14:21:41.849Z,7.07
2022-10-06T14:24:19.514Z,4.18
2022-10-06T14:26:51.328Z,5.70
2022-10-06T14:29:19.410Z,7.70
2022-10-06T14:31:47.221Z,7.22
2022-10-06T14:34:16.894Z,9.07
2022-10-06T14:36:51.504Z,6.60
2022-10-06T14:39:19.007Z,5.47
2022-10-06T14:41:45.935Z,4.93
2022-10-06T14:44:15.157Z,4.43
2022-10-06T14:46:43.873Z,6.68
2022-10-06T14:49:13.393Z,5.10
2022-10-06T14:51:42.212Z,3.42
2022-10-06T14:54:10.553Z,5.22
2022-10-06T14:56:38.998Z,6.03
2022-10-06T14:59:07.966Z,6.03
2022-10-06T15:01:37.251Z,5.90
2022-10-06T15:04:10.102Z,4.68
2022-10-06T15:06:55.455Z,3.97
2022-10-06T15:09:23.884Z,3.85
2022-10-06T15:11:51.905Z,6.47
2022-10-06T15:14:18.623Z,4.18
2022-10-06T15:16:45.372Z,4.75
2022-10-06T15:19:12.720Z,6.40
2022-10-06T15:21:40.990Z,4.47
2022-10-06T15:24:13.370Z,6.05
2022-10-06T15:26:58.680Z,4.65
2022-10-06T15:31:53.162Z,5.88
2022-10-06T15:34:24.126Z,4.18
2022-10-06T15:36:54.279Z,4.53
2022-10-06T15:39:23.716Z,5.57
2022-10-06T15:41:50.980Z,4.93
2022-10-06T15:44:19.643Z,4.40
2022-10-06T15:46:51.338Z,6.93
2022-10-06T15:49:26.179Z,7.90
2022-10-06T15:52:02.484Z,7.63
2022-10-06T15:54:33.704Z,5.07
2022-10-06T15:57:02.403Z,4.10
2022-10-06T15:59:40.258Z,5.55
2022-10-06T16:02:15.035Z,5.80
2022-10-06T16:04:42.879Z,5.28
2022-10-06T16:07:16.233Z,5.32
2022-10-06T16:09:52.241Z,5.82
2022-10-06T16:12:24.854Z,8.30
2022-10-06T16:14:54.543Z,7.68
2022-10-06T16:17:44.404Z,7.75
2022-10-06T16:20:11.704Z,4.90
2022-10-06T16:22:38.650Z,9.70
2022-10-06T16:25:09.652Z,7.47
2022-10-06T16:27:36.373Z,6.90
2022-10-06T16:30:03.385Z,5.95
2022-10-06T16:32:30.040Z,4.78
2022-10-06T16:34:56.755Z,4.75
2022-10-06T16:37:23.421Z,6.00
2022-10-06T16:39:50.120Z,5.40
2022-10-06T16:42:18.101Z,8.57
2022-10-06T16:44:44.775Z,7.70
2022-10-06T16:47:11.628Z,5.57
2022-10-06T16:49:38.347Z,4.93
2022-10-06T16:52:07.843Z,7.25
2022-10-06T16:54:34.540Z,6.57
2022-10-06T16:57:06.718Z,5.03
2022-10-06T16:59:36.163Z,3.92
2022-10-06T17:02:02.909Z,6.45
2022-10-06T17:04:29.725Z,5.15
2022-10-06T17:06:57.380Z,8.20
2022-10-06T17:09:26.918Z,5.13
2022-10-06T17:11:58.873Z,7.10
2022-10-06T17:14:27.051Z,4.80
2022-10-06T17:16:55.992Z,7.70
2022-10-06T17:19:31.285Z,5.53
2022-10-06T17:21:59.757Z,8.75
2022-10-06T17:24:28.669Z,6.55
2022-10-06T17:26:58.740Z,5.68
2022-10-06T17:29:26.851Z,5.75
2022-10-06T17:31:59.588Z,6.75
2022-10-06T17:34:32.237Z,6.68
2022-10-06T17:36:59.870Z,6.07
2022-10-06T17:39:26.821Z,7.45
2022-10-06T17:41:54.036Z,7.63
2022-10-06T17:44:23.711Z,6.15
2022-10-06T17:46:56.376Z,6.65
2022-10-06T17:49:27.729Z,7.07
2022-10-06T17:51:55.240Z,9.02
2022-10-06T17:54:24.375Z,10.05
2022-10-06T17:56:56.136Z,7.80
2022-10-06T17:59:31.963Z,10.68
2022-10-06T18:02:07.428Z,5.95
2022-10-06T18:04:35.570Z,10.93
2022-10-06T18:07:03.374Z,9.63
2022-10-06T18:09:30.260Z,10.02
2022-10-06T18:11:59.841Z,11.40
2022-10-06T18:14:34.879Z,9.85
2022-10-06T18:17:03.764Z,8.13
2022-10-06T18:19:35.601Z,8.38
2022-10-06T18:22:12.961Z,10.18
2022-10-06T18:24:48.063Z,6.10
2022-10-06T18:30:39.835Z,8.93
2022-10-06T18:36:14.826Z,12.93
2022-10-06T18:39:05.768Z,9.27
2022-10-06T18:44:44.343Z,10.40
2022-10-06T18:47:29.676Z,7.50
2022-10-06T18:49:56.643Z,12.10
2022-10-06T18:52:23.628Z,9.38
2022-10-06T18:54:51.938Z,8.15
2022-10-06T18:57:26.528Z,13.20
2022-10-06T18:59:54.454Z,10.85
2022-10-06T19:02:21.281Z,12.68
2022-10-06T19:04:48.460Z,13.88
2022-10-06T19:07:17.638Z,14.38
2022-10-06T19:09:47.592Z,14.00
2022-10-06T19:12:14.360Z,14.40
2022-10-06T19:14:50.365Z,12.57
2022-10-06T19:17:17.261Z,15.05
2022-10-06T19:19:46.117Z,15.07
2022-10-06T19:22:16.157Z,14.35
2022-10-06T19:24:44.724Z,13.27
2022-10-06T19:27:17.218Z,16.10
2022-10-06T19:29:54.219Z,12.98
2022-10-06T19:32:24.756Z,10.80
2022-10-06T19:34:54.118Z,12.57
2022-10-06T19:37:25.173Z,14.57
2022-10-06T19:39:54.333Z,14.55
2022-10-06T19:42:39.426Z,14.32
2022-10-06T19:45:11.577Z,12.70
2022-10-06T19:47:40.750Z,15.80
2022-10-06T19:50:12.162Z,11.85
2022-10-06T19:52:42.394Z,13.23
2022-10-06T19:55:09.138Z,13.38
2022-10-06T19:57:35.910Z,14.50
2022-10-06T20:00:04.081Z,12.15
2022-10-06T20:02:33.226Z,15.32
2022-10-06T20:04:59.972Z,13.48
2022-10-06T20:07:29.675Z,14.20
2022-10-06T20:09:56.453Z,10.57
2022-10-06T20:12:28.350Z,11.50
2022-10-06T20:14:58.089Z,13.93
2022-10-06T20:17:28.945Z,13.15
2022-10-06T20:19:57.718Z,12.65
2022-10-06T20:22:25.046Z,14.23
2022-10-06T20:24:54.198Z,12.07
2022-10-06T20:27:23.048Z,16.02
2022-10-06T20:29:53.030Z,14.05
2022-10-06T20:32:23.058Z,11.90
2022-10-06T20:34:52.011Z,10.50
2022-10-06T20:37:20.910Z,11.82
2022-10-06T20:40:08.286Z,15.77
2022-10-06T20:42:37.583Z,11.65
2022-10-06T20:45:04.615Z,12.85
2022-10-06T20:47:31.419Z,13.85
2022-10-06T20:49:58.115Z,11.52
2022-10-06T20:52:24.882Z,14.07
2022-10-06T20:54:51.998Z,13.35
2022-10-06T20:57:18.803Z,12.25
2022-10-06T20:59:46.074Z,8.75
2022-10-06T21:02:15.267Z,13.55
2022-10-06T21:04:45.111Z,16.33
2022-10-06T21:07:15.212Z,14.45
2022-10-06T21:09:42.002Z,11.57
2022-10-06T21:12:08.955Z,9.77
2022-10-06T21:14:37.426Z,11.73
2022-10-06T21:17:05.235Z,11.02
2022-10-06T21:19:37.824Z,11.63
2022-10-06T21:22:07.241Z,12.15
2022-10-06T21:24:36.272Z,14.13
2022-10-06T21:27:03.237Z,12.13
2022-10-06T21:29:32.059Z,10.85
2022-10-06T21:32:01.143Z,11.63
2022-10-06T21:34:30.033Z,14.40
2022-10-06T21:36:57.379Z,11.43
2022-10-06T21:39:24.106Z,11.70
2022-10-06T21:41:52.895Z,12.40
2022-10-06T21:44:22.388Z,9.85
2022-10-06T21:46:53.648Z,15.75
2022-10-06T21:49:28.267Z,10.90
2022-10-06T21:51:56.653Z,11.27
2022-10-06T21:54:26.482Z,12.32
2022-10-06T21:56:53.290Z,10.18
2022-10-06T21:59:20.079Z,10.50
2022-10-06T22:01:49.812Z,10.63
2022-10-06T22:04:21.351Z,10.38
2022-10-06T22:06:51.797Z,12.65
2022-10-06T22:09:21.169Z,13.60
2022-10-06T22:11:48.626Z,9.27
2022-10-06T22:14:22.011Z,10.30
2022-10-06T22:16:49.381Z,11.25
2022-10-06T22:19:17.873Z,11.00
2022-10-06T22:21:49.293Z,11.13
2022-10-06T22:24:18.803Z,11.85
2022-10-06T22:26:46.323Z,13.63
2022-10-06T22:29:14.757Z,12.65
2022-10-06T22:31:43.271Z,9.75
2022-10-06T22:34:15.807Z,13.98
2022-10-06T22:36:43.185Z,9.10
2022-10-06T22:39:10.368Z,17.25
2022-10-06T22:41:38.098Z,13.23
2022-10-06T22:44:04.966Z,14.45
2022-10-06T22:46:35.422Z,10.40
2022-10-06T22:49:03.467Z,11.00
2022-10-06T22:51:30.541Z,11.23
2022-10-06T22:53:59.433Z,11.60
2022-10-06T22:56:27.913Z,11.25
2022-10-06T22:58:58.136Z,9.77
2022-10-06T23:01:25.284Z,13.07
2022-10-06T23:03:54.004Z,10.45
2022-10-06T23:06:20.759Z,14.25
2022-10-06T23:08:47.584Z,9.77
2022-10-06T23:11:16.886Z,9.45
2022-10-06T23:13:44.977Z,11.75
2022-10-06T23:16:13.789Z,11.77
2022-10-06T23:18:41.995Z,10.90
2022-10-06T23:21:11.736Z,10.48
2022-10-06T23:23:38.505Z,10.18
2022-10-06T23:26:11.376Z,8.77
2022-10-06T23:28:38.658Z,9.10
2022-10-06T23:31:09.911Z,13.60
2022-10-06T23:33:38.952Z,12.55
2022-10-06T23:36:11.352Z,9.63
2022-10-06T23:38:39.380Z,14.98
2022-10-06T23:41:07.093Z,9.05
2022-10-06T23:43:34.426Z,9.85
2022-10-06T23:46:01.943Z,11.45
2022-10-06T23:48:29.166Z,12.43
2022-10-06T23:51:07.934Z,8.90
2022-10-06T23:53:35.380Z,10.18
2022-10-06T23:56:03.029Z,7.60
2022-10-06T23:58:29.890Z,9.85
